sensor_id;sensor_type;location;lat;lon;timestamp;P1;durP1;ratioP1;P2;durP2;ratioP2
79074;SDS011;68476;42.710;23.388;2023-12-14T00:00:44;13.32;;;8.13;;
79074;SDS011;68476;42.710;23.388;2023-12-14T00:03:10;12.38;;;7.97;;
79074;SDS011;68476;42.710;23.388;2023-12-14T00:05:35;13.88;;;8.95;;
79074;SDS011;68476;42.710;23.388;2023-12-14T00:08:01;16.98;;;8.85;;
79074;SDS011;68476;42.710;23.388;2023-12-14T00:10:26;12.55;;;7.88;;
79074;SDS011;68476;42.710;23.388;2023-12-14T00:12:52;12.38;;;8.25;;
79074;SDS011;68476;42.710;23.388;2023-12-14T00:15:19;13.75;;;8.43;;
79074;SDS011;68476;42.710;23.388;2023-12-14T00:17:45;17.88;;;8.75;;
79074;SDS011;68476;42.710;23.388;2023-12-14T00:20:10;14.18;;;7.80;;
79074;SDS011;68476;42.710;23.388;2023-12-14T00:22:36;16.55;;;8.90;;
79074;SDS011;68476;42.710;23.388;2023-12-14T00:25:03;13.57;;;8.30;;
79074;SDS011;68476;42.710;23.388;2023-12-14T00:27:29;11.75;;;7.20;;
79074;SDS011;68476;42.710;23.388;2023-12-14T00:29:54;15.90;;;8.57;;
79074;SDS011;68476;42.710;23.388;2023-12-14T00:32:20;15.30;;;9.30;;
79074;SDS011;68476;42.710;23.388;2023-12-14T00:34:45;17.25;;;9.15;;
79074;SDS011;68476;42.710;23.388;2023-12-14T00:37:11;13.90;;;8.25;;
79074;SDS011;68476;42.710;23.388;2023-12-14T00:39:36;13.60;;;8.57;;
79074;SDS011;68476;42.710;23.388;2023-12-14T00:42:02;15.77;;;10.07;;
79074;SDS011;68476;42.710;23.388;2023-12-14T00:44:27;14.93;;;8.93;;
79074;SDS011;68476;42.710;23.388;2023-12-14T00:46:53;16.08;;;9.90;;
79074;SDS011;68476;42.710;23.388;2023-12-14T00:49:18;16.48;;;9.32;;
79074;SDS011;68476;42.710;23.388;2023-12-14T00:51:44;16.27;;;9.68;;
79074;SDS011;68476;42.710;23.388;2023-12-14T00:54:10;17.35;;;9.32;;
79074;SDS011;68476;42.710;23.388;2023-12-14T00:56:35;15.23;;;9.30;;
79074;SDS011;68476;42.710;23.388;2023-12-14T00:59:01;17.75;;;10.00;;
79074;SDS011;68476;42.710;23.388;2023-12-14T01:01:26;17.55;;;10.10;;
79074;SDS011;68476;42.710;23.388;2023-12-14T01:03:52;14.75;;;9.52;;
79074;SDS011;68476;42.710;23.388;2023-12-14T01:06:17;17.77;;;10.27;;
79074;SDS011;68476;42.710;23.388;2023-12-14T01:08:43;16.13;;;10.52;;
79074;SDS011;68476;42.710;23.388;2023-12-14T01:11:08;21.92;;;10.38;;
79074;SDS011;68476;42.710;23.388;2023-12-14T01:13:33;16.85;;;9.93;;
79074;SDS011;68476;42.710;23.388;2023-12-14T01:15:59;17.65;;;10.27;;
79074;SDS011;68476;42.710;23.388;2023-12-14T01:18:24;16.88;;;10.88;;
79074;SDS011;68476;42.710;23.388;2023-12-14T01:20:50;18.27;;;10.93;;
79074;SDS011;68476;42.710;23.388;2023-12-14T01:23:15;19.90;;;10.95;;
79074;SDS011;68476;42.710;23.388;2023-12-14T01:25:41;15.27;;;9.55;;
79074;SDS011;68476;42.710;23.388;2023-12-14T01:28:06;17.45;;;10.90;;
79074;SDS011;68476;42.710;23.388;2023-12-14T01:30:33;18.35;;;10.45;;
79074;SDS011;68476;42.710;23.388;2023-12-14T01:32:58;13.82;;;7.97;;
79074;SDS011;68476;42.710;23.388;2023-12-14T01:35:24;18.85;;;11.48;;
79074;SDS011;68476;42.710;23.388;2023-12-14T01:37:49;19.77;;;12.38;;
79074;SDS011;68476;42.710;23.388;2023-12-14T01:40:16;18.25;;;11.80;;
79074;SDS011;68476;42.710;23.388;2023-12-14T01:42:44;18.00;;;10.52;;
79074;SDS011;68476;42.710;23.388;2023-12-14T01:45:09;17.65;;;10.00;;
79074;SDS011;68476;42.710;23.388;2023-12-14T01:47:35;22.08;;;13.25;;
79074;SDS011;68476;42.710;23.388;2023-12-14T01:50:01;24.30;;;14.63;;
79074;SDS011;68476;42.710;23.388;2023-12-14T01:52:26;20.40;;;11.98;;
79074;SDS011;68476;42.710;23.388;2023-12-14T01:54:52;24.25;;;13.27;;
79074;SDS011;68476;42.710;23.388;2023-12-14T01:57:17;20.63;;;13.00;;
79074;SDS011;68476;42.710;23.388;2023-12-14T01:59:43;19.20;;;11.10;;
79074;SDS011;68476;42.710;23.388;2023-12-14T02:02:08;20.65;;;12.63;;
79074;SDS011;68476;42.710;23.388;2023-12-14T02:04:34;19.05;;;11.48;;
79074;SDS011;68476;42.710;23.388;2023-12-14T02:06:59;23.55;;;13.73;;
79074;SDS011;68476;42.710;23.388;2023-12-14T02:09:25;15.73;;;9.98;;
79074;SDS011;68476;42.710;23.388;2023-12-14T02:11:51;16.60;;;10.48;;
79074;SDS011;68476;42.710;23.388;2023-12-14T02:14:16;16.80;;;11.73;;
79074;SDS011;68476;42.710;23.388;2023-12-14T02:16:42;21.00;;;11.93;;
79074;SDS011;68476;42.710;23.388;2023-12-14T02:19:07;19.40;;;11.13;;
79074;SDS011;68476;42.710;23.388;2023-12-14T02:21:33;20.15;;;12.90;;
79074;SDS011;68476;42.710;23.388;2023-12-14T02:23:58;20.77;;;12.25;;
79074;SDS011;68476;42.710;23.388;2023-12-14T02:26:24;20.45;;;11.52;;
79074;SDS011;68476;42.710;23.388;2023-12-14T02:28:49;18.17;;;11.43;;
79074;SDS011;68476;42.710;23.388;2023-12-14T02:31:15;22.02;;;11.80;;
79074;SDS011;68476;42.710;23.388;2023-12-14T02:33:40;18.23;;;10.98;;
79074;SDS011;68476;42.710;23.388;2023-12-14T02:36:06;15.93;;;10.25;;
79074;SDS011;68476;42.710;23.388;2023-12-14T02:38:32;24.50;;;11.88;;
79074;SDS011;68476;42.710;23.388;2023-12-14T02:40:58;23.67;;;12.95;;
79074;SDS011;68476;42.710;23.388;2023-12-14T02:43:23;21.20;;;12.85;;
79074;SDS011;68476;42.710;23.388;2023-12-14T02:45:49;24.77;;;13.65;;
79074;SDS011;68476;42.710;23.388;2023-12-14T02:48:15;21.27;;;12.63;;
79074;SDS011;68476;42.710;23.388;2023-12-14T02:50:40;23.90;;;13.98;;
79074;SDS011;68476;42.710;23.388;2023-12-14T02:53:06;24.83;;;15.13;;
79074;SDS011;68476;42.710;23.388;2023-12-14T02:55:32;28.20;;;16.27;;
79074;SDS011;68476;42.710;23.388;2023-12-14T02:57:57;24.35;;;14.75;;
79074;SDS011;68476;42.710;23.388;2023-12-14T03:00:22;27.60;;;15.27;;
79074;SDS011;68476;42.710;23.388;2023-12-14T03:02:48;23.13;;;14.20;;
79074;SDS011;68476;42.710;23.388;2023-12-14T03:05:13;25.77;;;12.88;;
79074;SDS011;68476;42.710;23.388;2023-12-14T03:07:39;26.13;;;14.18;;
79074;SDS011;68476;42.710;23.388;2023-12-14T03:10:05;15.55;;;9.48;;
79074;SDS011;68476;42.710;23.388;2023-12-14T03:12:31;27.33;;;13.57;;
79074;SDS011;68476;42.710;23.388;2023-12-14T03:14:56;20.48;;;12.95;;
79074;SDS011;68476;42.710;23.388;2023-12-14T03:17:22;25.98;;;14.10;;
79074;SDS011;68476;42.710;23.388;2023-12-14T03:19:47;31.15;;;15.65;;
79074;SDS011;68476;42.710;23.388;2023-12-14T03:22:13;27.70;;;16.25;;
79074;SDS011;68476;42.710;23.388;2023-12-14T03:24:38;27.80;;;16.15;;
79074;SDS011;68476;42.710;23.388;2023-12-14T03:27:04;27.42;;;16.02;;
79074;SDS011;68476;42.710;23.388;2023-12-14T03:29:30;26.42;;;15.52;;
79074;SDS011;68476;42.710;23.388;2023-12-14T03:31:56;24.55;;;16.38;;
79074;SDS011;68476;42.710;23.388;2023-12-14T03:34:22;28.33;;;16.30;;
79074;SDS011;68476;42.710;23.388;2023-12-14T03:36:48;24.23;;;13.50;;
79074;SDS011;68476;42.710;23.388;2023-12-14T03:39:14;27.25;;;15.63;;
79074;SDS011;68476;42.710;23.388;2023-12-14T03:41:41;26.33;;;15.57;;
79074;SDS011;68476;42.710;23.388;2023-12-14T03:44:07;28.20;;;16.02;;
79074;SDS011;68476;42.710;23.388;2023-12-14T03:46:32;27.50;;;16.80;;
79074;SDS011;68476;42.710;23.388;2023-12-14T03:48:59;23.38;;;15.35;;
79074;SDS011;68476;42.710;23.388;2023-12-14T03:51:24;23.60;;;14.98;;
79074;SDS011;68476;42.710;23.388;2023-12-14T03:53:50;25.08;;;15.20;;
79074;SDS011;68476;42.710;23.388;2023-12-14T03:56:15;24.45;;;14.40;;
79074;SDS011;68476;42.710;23.388;2023-12-14T03:58:41;26.83;;;17.13;;
79074;SDS011;68476;42.710;23.388;2023-12-14T04:01:06;30.77;;;17.13;;
79074;SDS011;68476;42.710;23.388;2023-12-14T04:03:32;27.08;;;16.42;;
79074;SDS011;68476;42.710;23.388;2023-12-14T04:05:58;24.35;;;16.08;;
79074;SDS011;68476;42.710;23.388;2023-12-14T04:08:23;24.88;;;14.85;;
79074;SDS011;68476;42.710;23.388;2023-12-14T04:10:49;27.25;;;14.95;;
79074;SDS011;68476;42.710;23.388;2023-12-14T04:13:15;25.15;;;15.52;;
79074;SDS011;68476;42.710;23.388;2023-12-14T04:15:40;24.35;;;15.07;;
79074;SDS011;68476;42.710;23.388;2023-12-14T04:18:08;24.80;;;16.80;;
79074;SDS011;68476;42.710;23.388;2023-12-14T04:20:34;25.08;;;14.57;;
79074;SDS011;68476;42.710;23.388;2023-12-14T04:22:59;24.10;;;14.60;;
79074;SDS011;68476;42.710;23.388;2023-12-14T04:25:25;23.25;;;12.90;;
79074;SDS011;68476;42.710;23.388;2023-12-14T04:27:50;21.08;;;12.77;;
79074;SDS011;68476;42.710;23.388;2023-12-14T04:30:16;23.58;;;14.23;;
79074;SDS011;68476;42.710;23.388;2023-12-14T04:32:41;23.95;;;14.60;;
79074;SDS011;68476;42.710;23.388;2023-12-14T04:35:07;26.70;;;15.07;;
79074;SDS011;68476;42.710;23.388;2023-12-14T04:37:33;27.45;;;15.18;;
79074;SDS011;68476;42.710;23.388;2023-12-14T04:39:59;24.20;;;14.77;;
79074;SDS011;68476;42.710;23.388;2023-12-14T04:42:25;26.65;;;16.48;;
79074;SDS011;68476;42.710;23.388;2023-12-14T04:44:51;22.75;;;12.90;;
79074;SDS011;68476;42.710;23.388;2023-12-14T04:47:16;24.95;;;14.43;;
79074;SDS011;68476;42.710;23.388;2023-12-14T04:49:42;24.80;;;14.95;;
79074;SDS011;68476;42.710;23.388;2023-12-14T04:52:07;28.58;;;16.02;;
79074;SDS011;68476;42.710;23.388;2023-12-14T04:54:33;19.20;;;11.90;;
79074;SDS011;68476;42.710;23.388;2023-12-14T04:57:02;26.10;;;15.75;;
79074;SDS011;68476;42.710;23.388;2023-12-14T04:59:28;31.80;;;19.08;;
79074;SDS011;68476;42.710;23.388;2023-12-14T05:01:54;27.77;;;15.77;;
79074;SDS011;68476;42.710;23.388;2023-12-14T05:04:19;29.45;;;18.65;;
79074;SDS011;68476;42.710;23.388;2023-12-14T05:06:45;30.60;;;16.48;;
79074;SDS011;68476;42.710;23.388;2023-12-14T05:09:10;32.10;;;17.25;;
79074;SDS011;68476;42.710;23.388;2023-12-14T05:11:36;27.13;;;17.05;;
79074;SDS011;68476;42.710;23.388;2023-12-14T05:14:02;31.98;;;19.60;;
79074;SDS011;68476;42.710;23.388;2023-12-14T05:16:28;35.15;;;22.83;;
79074;SDS011;68476;42.710;23.388;2023-12-14T05:18:53;36.72;;;21.60;;
79074;SDS011;68476;42.710;23.388;2023-12-14T05:21:19;37.00;;;22.05;;
79074;SDS011;68476;42.710;23.388;2023-12-14T05:23:45;35.97;;;19.52;;
79074;SDS011;68476;42.710;23.388;2023-12-14T05:26:11;21.85;;;14.90;;
79074;SDS011;68476;42.710;23.388;2023-12-14T05:28:36;35.67;;;23.27;;
79074;SDS011;68476;42.710;23.388;2023-12-14T05:31:01;34.95;;;20.70;;
79074;SDS011;68476;42.710;23.388;2023-12-14T05:33:30;33.63;;;20.40;;
79074;SDS011;68476;42.710;23.388;2023-12-14T05:35:56;36.28;;;21.48;;
79074;SDS011;68476;42.710;23.388;2023-12-14T05:38:22;34.75;;;20.63;;
79074;SDS011;68476;42.710;23.388;2023-12-14T05:40:47;29.55;;;17.02;;
79074;SDS011;68476;42.710;23.388;2023-12-14T05:43:13;42.00;;;24.58;;
79074;SDS011;68476;42.710;23.388;2023-12-14T05:45:38;36.45;;;22.17;;
79074;SDS011;68476;42.710;23.388;2023-12-14T05:48:04;36.30;;;25.63;;
79074;SDS011;68476;42.710;23.388;2023-12-14T05:50:30;33.88;;;23.42;;
79074;SDS011;68476;42.710;23.388;2023-12-14T05:52:56;38.13;;;24.35;;
79074;SDS011;68476;42.710;23.388;2023-12-14T05:55:22;53.33;;;30.65;;
79074;SDS011;68476;42.710;23.388;2023-12-14T05:57:48;32.17;;;18.63;;
79074;SDS011;68476;42.710;23.388;2023-12-14T06:00:13;52.78;;;32.40;;
79074;SDS011;68476;42.710;23.388;2023-12-14T06:02:39;42.65;;;23.05;;
79074;SDS011;68476;42.710;23.388;2023-12-14T06:05:05;41.30;;;22.33;;
79074;SDS011;68476;42.710;23.388;2023-12-14T06:07:32;35.80;;;21.13;;
79074;SDS011;68476;42.710;23.388;2023-12-14T06:09:57;34.40;;;20.58;;
79074;SDS011;68476;42.710;23.388;2023-12-14T06:12:23;31.20;;;18.92;;
79074;SDS011;68476;42.710;23.388;2023-12-14T06:14:48;43.33;;;24.42;;
79074;SDS011;68476;42.710;23.388;2023-12-14T06:17:15;34.63;;;22.10;;
79074;SDS011;68476;42.710;23.388;2023-12-14T06:19:41;35.67;;;21.30;;
79074;SDS011;68476;42.710;23.388;2023-12-14T06:22:06;34.00;;;20.38;;
79074;SDS011;68476;42.710;23.388;2023-12-14T06:24:32;31.15;;;18.08;;
79074;SDS011;68476;42.710;23.388;2023-12-14T06:26:58;38.92;;;22.33;;
79074;SDS011;68476;42.710;23.388;2023-12-14T06:29:23;39.78;;;21.60;;
79074;SDS011;68476;42.710;23.388;2023-12-14T06:31:49;46.15;;;26.70;;
79074;SDS011;68476;42.710;23.388;2023-12-14T06:34:14;34.67;;;21.17;;
79074;SDS011;68476;42.710;23.388;2023-12-14T06:36:46;50.35;;;30.08;;
79074;SDS011;68476;42.710;23.388;2023-12-14T06:39:11;44.10;;;27.95;;
79074;SDS011;68476;42.710;23.388;2023-12-14T06:41:37;35.72;;;22.95;;
79074;SDS011;68476;42.710;23.388;2023-12-14T06:44:03;35.88;;;19.67;;
79074;SDS011;68476;42.710;23.388;2023-12-14T06:46:29;39.50;;;24.25;;
79074;SDS011;68476;42.710;23.388;2023-12-14T06:48:55;45.03;;;28.48;;
79074;SDS011;68476;42.710;23.388;2023-12-14T06:51:20;28.95;;;19.25;;
79074;SDS011;68476;42.710;23.388;2023-12-14T06:53:46;39.00;;;24.48;;
79074;SDS011;68476;42.710;23.388;2023-12-14T06:56:12;60.25;;;41.90;;
79074;SDS011;68476;42.710;23.388;2023-12-14T06:58:39;55.00;;;36.00;;
79074;SDS011;68476;42.710;23.388;2023-12-14T07:01:05;46.00;;;30.55;;
79074;SDS011;68476;42.710;23.388;2023-12-14T07:03:31;40.38;;;26.00;;
79074;SDS011;68476;42.710;23.388;2023-12-14T07:05:57;50.20;;;27.02;;
79074;SDS011;68476;42.710;23.388;2023-12-14T07:08:23;35.55;;;21.08;;
79074;SDS011;68476;42.710;23.388;2023-12-14T07:10:49;41.63;;;25.20;;
79074;SDS011;68476;42.710;23.388;2023-12-14T07:13:15;41.88;;;23.35;;
79074;SDS011;68476;42.710;23.388;2023-12-14T07:15:40;39.78;;;25.30;;
79074;SDS011;68476;42.710;23.388;2023-12-14T07:18:06;37.70;;;23.10;;
79074;SDS011;68476;42.710;23.388;2023-12-14T07:20:31;44.35;;;26.92;;
79074;SDS011;68476;42.710;23.388;2023-12-14T07:22:57;32.72;;;21.25;;
79074;SDS011;68476;42.710;23.388;2023-12-14T07:25:22;37.67;;;21.17;;
79074;SDS011;68476;42.710;23.388;2023-12-14T07:27:47;33.90;;;20.63;;
79074;SDS011;68476;42.710;23.388;2023-12-14T07:30:14;36.60;;;23.10;;
79074;SDS011;68476;42.710;23.388;2023-12-14T07:32:40;27.15;;;18.05;;
79074;SDS011;68476;42.710;23.388;2023-12-14T07:35:05;35.50;;;22.65;;
79074;SDS011;68476;42.710;23.388;2023-12-14T07:37:31;29.88;;;18.40;;
79074;SDS011;68476;42.710;23.388;2023-12-14T07:39:58;29.77;;;18.75;;
79074;SDS011;68476;42.710;23.388;2023-12-14T07:42:24;31.65;;;19.52;;
79074;SDS011;68476;42.710;23.388;2023-12-14T07:44:49;29.30;;;18.60;;
79074;SDS011;68476;42.710;23.388;2023-12-14T07:47:15;30.70;;;19.52;;
79074;SDS011;68476;42.710;23.388;2023-12-14T07:49:40;34.08;;;19.50;;
79074;SDS011;68476;42.710;23.388;2023-12-14T07:52:06;30.27;;;19.00;;
79074;SDS011;68476;42.710;23.388;2023-12-14T07:54:31;36.60;;;23.85;;
79074;SDS011;68476;42.710;23.388;2023-12-14T07:56:57;39.47;;;21.73;;
79074;SDS011;68476;42.710;23.388;2023-12-14T07:59:23;38.53;;;22.10;;
79074;SDS011;68476;42.710;23.388;2023-12-14T08:01:48;36.65;;;22.10;;
79074;SDS011;68476;42.710;23.388;2023-12-14T08:04:14;30.95;;;21.73;;
79074;SDS011;68476;42.710;23.388;2023-12-14T08:06:40;35.80;;;22.95;;
79074;SDS011;68476;42.710;23.388;2023-12-14T08:09:05;33.72;;;21.48;;
79074;SDS011;68476;42.710;23.388;2023-12-14T08:11:31;36.78;;;23.27;;
79074;SDS011;68476;42.710;23.388;2023-12-14T08:13:57;35.90;;;22.35;;
79074;SDS011;68476;42.710;23.388;2023-12-14T08:16:23;40.90;;;23.05;;
79074;SDS011;68476;42.710;23.388;2023-12-14T08:18:48;37.50;;;22.98;;
79074;SDS011;68476;42.710;23.388;2023-12-14T08:21:14;35.00;;;21.60;;
79074;SDS011;68476;42.710;23.388;2023-12-14T08:23:41;33.97;;;22.15;;
79074;SDS011;68476;42.710;23.388;2023-12-14T08:26:07;37.75;;;21.60;;
79074;SDS011;68476;42.710;23.388;2023-12-14T08:28:33;31.70;;;19.70;;
79074;SDS011;68476;42.710;23.388;2023-12-14T08:30:59;28.83;;;20.25;;
79074;SDS011;68476;42.710;23.388;2023-12-14T08:33:28;38.60;;;29.27;;
79074;SDS011;68476;42.710;23.388;2023-12-14T08:35:53;34.20;;;22.20;;
79074;SDS011;68476;42.710;23.388;2023-12-14T08:38:19;29.25;;;19.65;;
79074;SDS011;68476;42.710;23.388;2023-12-14T08:40:44;39.40;;;21.45;;
79074;SDS011;68476;42.710;23.388;2023-12-14T08:43:10;33.90;;;22.40;;
79074;SDS011;68476;42.710;23.388;2023-12-14T08:45:35;38.67;;;24.95;;
79074;SDS011;68476;42.710;23.388;2023-12-14T08:48:01;40.55;;;23.98;;
79074;SDS011;68476;42.710;23.388;2023-12-14T08:50:26;37.33;;;24.15;;
79074;SDS011;68476;42.710;23.388;2023-12-14T08:52:52;40.42;;;27.30;;
79074;SDS011;68476;42.710;23.388;2023-12-14T08:55:18;36.47;;;24.85;;
79074;SDS011;68476;42.710;23.388;2023-12-14T08:57:43;37.83;;;24.75;;
79074;SDS011;68476;42.710;23.388;2023-12-14T09:00:09;38.72;;;25.00;;
79074;SDS011;68476;42.710;23.388;2023-12-14T09:02:35;39.63;;;27.60;;
79074;SDS011;68476;42.710;23.388;2023-12-14T09:05:01;43.03;;;26.85;;
79074;SDS011;68476;42.710;23.388;2023-12-14T09:07:26;45.92;;;28.25;;
79074;SDS011;68476;42.710;23.388;2023-12-14T09:09:52;42.20;;;28.42;;
79074;SDS011;68476;42.710;23.388;2023-12-14T09:12:17;40.15;;;26.50;;
79074;SDS011;68476;42.710;23.388;2023-12-14T09:14:43;37.90;;;25.23;;
79074;SDS011;68476;42.710;23.388;2023-12-14T09:17:08;41.05;;;25.98;;
79074;SDS011;68476;42.710;23.388;2023-12-14T09:19:34;39.92;;;26.50;;
79074;SDS011;68476;42.710;23.388;2023-12-14T09:21:59;37.20;;;25.40;;
79074;SDS011;68476;42.710;23.388;2023-12-14T09:24:25;38.50;;;24.90;;
79074;SDS011;68476;42.710;23.388;2023-12-14T09:26:50;38.55;;;25.45;;
79074;SDS011;68476;42.710;23.388;2023-12-14T09:29:16;41.72;;;25.92;;
79074;SDS011;68476;42.710;23.388;2023-12-14T09:31:42;41.00;;;25.70;;
79074;SDS011;68476;42.710;23.388;2023-12-14T09:34:09;38.95;;;26.27;;
79074;SDS011;68476;42.710;23.388;2023-12-14T09:36:35;40.83;;;25.40;;
79074;SDS011;68476;42.710;23.388;2023-12-14T09:39:01;40.95;;;27.25;;
79074;SDS011;68476;42.710;23.388;2023-12-14T09:41:26;41.35;;;25.90;;
79074;SDS011;68476;42.710;23.388;2023-12-14T09:43:52;36.28;;;25.17;;
79074;SDS011;68476;42.710;23.388;2023-12-14T09:46:17;39.15;;;23.98;;
79074;SDS011;68476;42.710;23.388;2023-12-14T09:48:44;41.83;;;24.65;;
79074;SDS011;68476;42.710;23.388;2023-12-14T09:51:11;36.83;;;23.65;;
79074;SDS011;68476;42.710;23.388;2023-12-14T09:53:37;39.95;;;25.63;;
79074;SDS011;68476;42.710;23.388;2023-12-14T09:56:02;39.60;;;24.15;;
79074;SDS011;68476;42.710;23.388;2023-12-14T09:58:31;39.20;;;28.02;;
79074;SDS011;68476;42.710;23.388;2023-12-14T10:00:58;42.28;;;27.08;;
79074;SDS011;68476;42.710;23.388;2023-12-14T10:03:26;44.88;;;28.73;;
79074;SDS011;68476;42.710;23.388;2023-12-14T10:05:56;48.20;;;31.20;;
79074;SDS011;68476;42.710;23.388;2023-12-14T10:08:22;62.20;;;38.35;;
79074;SDS011;68476;42.710;23.388;2023-12-14T10:10:50;66.50;;;41.65;;
79074;SDS011;68476;42.710;23.388;2023-12-14T10:13:18;58.53;;;37.47;;
79074;SDS011;68476;42.710;23.388;2023-12-14T10:15:45;47.22;;;30.67;;
79074;SDS011;68476;42.710;23.388;2023-12-14T10:18:19;48.05;;;29.45;;
79074;SDS011;68476;42.710;23.388;2023-12-14T10:20:48;46.20;;;28.17;;
79074;SDS011;68476;42.710;23.388;2023-12-14T10:23:13;40.05;;;28.33;;
79074;SDS011;68476;42.710;23.388;2023-12-14T10:25:39;44.40;;;27.67;;
79074;SDS011;68476;42.710;23.388;2023-12-14T10:28:04;42.60;;;28.02;;
79074;SDS011;68476;42.710;23.388;2023-12-14T10:30:30;46.38;;;29.92;;
79074;SDS011;68476;42.710;23.388;2023-12-14T10:32:56;43.22;;;27.40;;
79074;SDS011;68476;42.710;23.388;2023-12-14T10:35:22;43.85;;;26.75;;
79074;SDS011;68476;42.710;23.388;2023-12-14T10:37:51;46.45;;;27.77;;
79074;SDS011;68476;42.710;23.388;2023-12-14T10:40:17;43.38;;;27.58;;
79074;SDS011;68476;42.710;23.388;2023-12-14T10:42:43;42.72;;;28.80;;
79074;SDS011;68476;42.710;23.388;2023-12-14T10:45:13;48.28;;;28.75;;
79074;SDS011;68476;42.710;23.388;2023-12-14T10:47:44;51.15;;;29.20;;
79074;SDS011;68476;42.710;23.388;2023-12-14T10:50:11;46.30;;;28.30;;
79074;SDS011;68476;42.710;23.388;2023-12-14T10:52:40;50.20;;;29.23;;
79074;SDS011;68476;42.710;23.388;2023-12-14T10:55:07;41.33;;;25.70;;
79074;SDS011;68476;42.710;23.388;2023-12-14T10:57:36;37.53;;;22.60;;
79074;SDS011;68476;42.710;23.388;2023-12-14T11:00:02;42.10;;;23.63;;
79074;SDS011;68476;42.710;23.388;2023-12-14T11:02:41;32.22;;;20.98;;
79074;SDS011;68476;42.710;23.388;2023-12-14T11:05:11;31.63;;;21.00;;
79074;SDS011;68476;42.710;23.388;2023-12-14T11:07:47;32.25;;;20.25;;
79074;SDS011;68476;42.710;23.388;2023-12-14T11:10:26;24.75;;;16.75;;
79074;SDS011;68476;42.710;23.388;2023-12-14T11:12:57;14.45;;;10.57;;
79074;SDS011;68476;42.710;23.388;2023-12-14T11:15:30;11.40;;;6.80;;
79074;SDS011;68476;42.710;23.388;2023-12-14T11:23:15;6.93;;;4.38;;
79074;SDS011;68476;42.710;23.388;2023-12-14T11:25:42;9.70;;;4.95;;
79074;SDS011;68476;42.710;23.388;2023-12-14T11:28:09;8.18;;;4.30;;
79074;SDS011;68476;42.710;23.388;2023-12-14T11:30:35;7.05;;;4.57;;
79074;SDS011;68476;42.710;23.388;2023-12-14T11:33:02;9.23;;;4.53;;
79074;SDS011;68476;42.710;23.388;2023-12-14T11:35:28;6.97;;;3.67;;
79074;SDS011;68476;42.710;23.388;2023-12-14T11:37:53;5.95;;;3.55;;
79074;SDS011;68476;42.710;23.388;2023-12-14T11:40:22;4.88;;;3.38;;
79074;SDS011;68476;42.710;23.388;2023-12-14T11:45:45;5.95;;;3.28;;
79074;SDS011;68476;42.710;23.388;2023-12-14T11:48:11;5.22;;;2.72;;
79074;SDS011;68476;42.710;23.388;2023-12-14T11:50:38;3.92;;;2.35;;
79074;SDS011;68476;42.710;23.388;2023-12-14T11:53:05;6.75;;;4.47;;
79074;SDS011;68476;42.710;23.388;2023-12-14T11:55:31;3.85;;;2.40;;
79074;SDS011;68476;42.710;23.388;2023-12-14T11:57:58;3.28;;;2.03;;
79074;SDS011;68476;42.710;23.388;2023-12-14T12:00:25;4.70;;;2.30;;
79074;SDS011;68476;42.710;23.388;2023-12-14T12:02:52;4.93;;;1.90;;
79074;SDS011;68476;42.710;23.388;2023-12-14T12:08:04;3.22;;;1.75;;
79074;SDS011;68476;42.710;23.388;2023-12-14T12:10:30;4.18;;;2.70;;
79074;SDS011;68476;42.710;23.388;2023-12-14T12:13:00;4.63;;;2.20;;
79074;SDS011;68476;42.710;23.388;2023-12-14T12:15:26;3.58;;;2.00;;
79074;SDS011;68476;42.710;23.388;2023-12-14T12:17:52;5.35;;;2.05;;
79074;SDS011;68476;42.710;23.388;2023-12-14T12:20:17;3.05;;;1.90;;
79074;SDS011;68476;42.710;23.388;2023-12-14T12:22:43;5.95;;;2.25;;
79074;SDS011;68476;42.710;23.388;2023-12-14T12:25:09;3.67;;;2.30;;
79074;SDS011;68476;42.710;23.388;2023-12-14T12:27:34;3.70;;;1.80;;
79074;SDS011;68476;42.710;23.388;2023-12-14T12:30:00;6.57;;;3.03;;
79074;SDS011;68476;42.710;23.388;2023-12-14T12:32:25;4.72;;;2.22;;
79074;SDS011;68476;42.710;23.388;2023-12-14T12:34:51;10.00;;;3.20;;
79074;SDS011;68476;42.710;23.388;2023-12-14T12:37:17;3.65;;;1.67;;
79074;SDS011;68476;42.710;23.388;2023-12-14T12:39:44;6.13;;;3.97;;
79074;SDS011;68476;42.710;23.388;2023-12-14T12:42:09;4.45;;;2.33;;
79074;SDS011;68476;42.710;23.388;2023-12-14T12:44:35;6.90;;;2.47;;
79074;SDS011;68476;42.710;23.388;2023-12-14T12:47:01;3.92;;;2.30;;
79074;SDS011;68476;42.710;23.388;2023-12-14T12:49:26;7.03;;;2.53;;
79074;SDS011;68476;42.710;23.388;2023-12-14T12:51:52;7.15;;;2.80;;
79074;SDS011;68476;42.710;23.388;2023-12-14T12:54:18;4.80;;;2.85;;
79074;SDS011;68476;42.710;23.388;2023-12-14T12:56:44;4.78;;;2.67;;
79074;SDS011;68476;42.710;23.388;2023-12-14T12:59:09;3.33;;;2.22;;
79074;SDS011;68476;42.710;23.388;2023-12-14T13:01:35;4.28;;;3.08;;
79074;SDS011;68476;42.710;23.388;2023-12-14T13:04:00;4.63;;;2.17;;
79074;SDS011;68476;42.710;23.388;2023-12-14T13:06:26;3.92;;;2.10;;
79074;SDS011;68476;42.710;23.388;2023-12-14T13:08:52;4.25;;;2.47;;
79074;SDS011;68476;42.710;23.388;2023-12-14T13:11:18;3.75;;;2.13;;
79074;SDS011;68476;42.710;23.388;2023-12-14T13:13:43;6.57;;;2.90;;
79074;SDS011;68476;42.710;23.388;2023-12-14T13:16:12;3.25;;;2.15;;
79074;SDS011;68476;42.710;23.388;2023-12-14T13:18:39;4.50;;;2.08;;
79074;SDS011;68476;42.710;23.388;2023-12-14T13:21:05;4.57;;;2.10;;
79074;SDS011;68476;42.710;23.388;2023-12-14T13:23:30;4.35;;;2.70;;
79074;SDS011;68476;42.710;23.388;2023-12-14T13:25:56;5.05;;;2.33;;
79074;SDS011;68476;42.710;23.388;2023-12-14T13:28:21;4.22;;;1.70;;
79074;SDS011;68476;42.710;23.388;2023-12-14T13:30:47;3.60;;;2.03;;
79074;SDS011;68476;42.710;23.388;2023-12-14T13:33:13;5.65;;;1.83;;
79074;SDS011;68476;42.710;23.388;2023-12-14T13:35:38;4.38;;;2.20;;
79074;SDS011;68476;42.710;23.388;2023-12-14T13:38:04;3.35;;;1.70;;
79074;SDS011;68476;42.710;23.388;2023-12-14T13:40:29;2.40;;;1.60;;
79074;SDS011;68476;42.710;23.388;2023-12-14T13:42:55;4.50;;;2.30;;
79074;SDS011;68476;42.710;23.388;2023-12-14T13:45:24;5.82;;;2.58;;
79074;SDS011;68476;42.710;23.388;2023-12-14T13:47:51;2.70;;;1.65;;
79074;SDS011;68476;42.710;23.388;2023-12-14T13:50:16;3.40;;;1.85;;
79074;SDS011;68476;42.710;23.388;2023-12-14T13:52:42;3.20;;;1.77;;
79074;SDS011;68476;42.710;23.388;2023-12-14T13:55:08;3.67;;;2.42;;
79074;SDS011;68476;42.710;23.388;2023-12-14T13:57:34;5.35;;;2.42;;
79074;SDS011;68476;42.710;23.388;2023-12-14T13:59:59;5.93;;;2.30;;
79074;SDS011;68476;42.710;23.388;2023-12-14T14:02:25;4.88;;;2.72;;
79074;SDS011;68476;42.710;23.388;2023-12-14T14:04:52;5.72;;;2.50;;
79074;SDS011;68476;42.710;23.388;2023-12-14T14:07:18;5.65;;;2.53;;
79074;SDS011;68476;42.710;23.388;2023-12-14T14:09:43;6.20;;;2.35;;
79074;SDS011;68476;42.710;23.388;2023-12-14T14:12:09;4.25;;;2.40;;
79074;SDS011;68476;42.710;23.388;2023-12-14T14:14:34;4.60;;;2.33;;
79074;SDS011;68476;42.710;23.388;2023-12-14T14:17:00;4.45;;;2.83;;
79074;SDS011;68476;42.710;23.388;2023-12-14T14:19:25;3.47;;;2.20;;